createdAt,value
2018-11-27T00:00:36.859Z,-4.20
2018-11-27T00:03:03.623Z,-4.10
2018-11-27T00:05:30.317Z,-4.20
2018-11-27T00:07:57.052Z,-4.30
2018-11-27T00:10:23.808Z,-4.30
2018-11-27T00:12:50.525Z,-4.30
2018-11-27T00:15:18.033Z,-4.30
2018-11-27T00:17:44.756Z,-4.30
2018-11-27T00:20:11.462Z,-4.40
2018-11-27T00:22:38.953Z,-4.40
2018-11-27T00:25:05.687Z,-4.30
2018-11-27T00:27:32.383Z,-4.30
2018-11-27T00:29:59.125Z,-4.40
2018-11-27T00:32:25.810Z,-4.40
2018-11-27T00:34:52.460Z,-4.40
2018-11-27T00:37:19.192Z,-4.40
2018-11-27T00:39:45.866Z,-4.40
2018-11-27T00:42:12.555Z,-4.50
2018-11-27T00:44:39.340Z,-4.50
2018-11-27T00:47:06.039Z,-4.50
2018-11-27T00:49:32.725Z,-4.40
2018-11-27T00:51:59.462Z,-4.50
2018-11-27T00:54:26.140Z,-4.50
2018-11-27T00:56:52.835Z,-4.50
2018-11-27T00:59:19.597Z,-4.60
2018-11-27T01:01:47.086Z,-4.70
2018-11-27T01:04:17.940Z,-4.70
2018-11-27T01:06:44.671Z,-4.80
2018-11-27T01:09:11.361Z,-4.70
2018-11-27T01:11:38.059Z,-4.80
2018-11-27T01:14:04.857Z,-4.70
2018-11-27T01:16:32.300Z,-4.80
2018-11-27T01:19:00.456Z,-4.80
2018-11-27T01:21:27.191Z,-4.80
2018-11-27T01:23:53.909Z,-4.90
2018-11-27T01:26:20.601Z,-4.90
2018-11-27T01:28:47.371Z,-4.90
2018-11-27T01:31:14.049Z,-5.00
2018-11-27T01:33:40.743Z,-5.00
2018-11-27T01:36:08.268Z,-5.00
2018-11-27T01:38:34.951Z,-5.00
2018-11-27T01:41:02.390Z,-5.00
2018-11-27T01:43:29.161Z,-5.10
2018-11-27T01:45:55.882Z,-5.10
2018-11-27T01:48:22.594Z,-5.10
2018-11-27T01:50:49.364Z,-5.10
2018-11-27T01:53:16.088Z,-5.10
2018-11-27T01:55:43.525Z,-5.10
2018-11-27T01:58:10.278Z,-5.10
2018-11-27T02:00:36.969Z,-5.10
2018-11-27T02:03:03.745Z,-5.10
2018-11-27T02:05:31.241Z,-5.20
2018-11-27T02:07:58.023Z,-5.20
2018-11-27T02:10:24.782Z,-5.20
2018-11-27T02:12:51.536Z,-5.30
2018-11-27T02:15:18.296Z,-5.30
2018-11-27T02:17:45.043Z,-5.40
2018-11-27T02:20:12.636Z,-5.40
2018-11-27T02:22:39.353Z,-5.40
2018-11-27T02:25:06.111Z,-5.50
2018-11-27T02:27:32.817Z,-5.50
2018-11-27T02:30:00.271Z,-5.50
2018-11-27T02:32:27.775Z,-5.50
2018-11-27T02:34:54.474Z,-5.60
2018-11-27T02:37:21.199Z,-5.60
2018-11-27T02:39:48.700Z,-5.60
2018-11-27T02:42:15.390Z,-5.60
2018-11-27T02:44:42.888Z,-5.70
2018-11-27T02:47:09.733Z,-5.70
2018-11-27T02:49:36.418Z,-5.70
2018-11-27T02:52:03.143Z,-5.80
2018-11-27T02:54:29.869Z,-5.80
2018-11-27T02:56:56.568Z,-5.80
2018-11-27T02:59:23.985Z,-5.80
2018-11-27T03:01:50.749Z,-5.90
2018-11-27T03:04:17.419Z,-5.80
2018-11-27T03:06:44.151Z,-5.90
2018-11-27T03:09:10.878Z,-5.90
2018-11-27T03:11:37.543Z,-5.80
2018-11-27T03:14:04.292Z,-5.80
2018-11-27T03:16:31.016Z,-5.80
2018-11-27T03:18:57.722Z,-5.80
2018-11-27T03:21:25.196Z,-5.80
2018-11-27T03:23:52.704Z,-5.80
2018-11-27T03:26:19.352Z,-5.80
2018-11-27T03:28:46.044Z,-5.80
2018-11-27T03:31:12.742Z,-5.80
2018-11-27T03:33:39.487Z,-5.80
2018-11-27T03:36:06.289Z,-5.90
2018-11-27T03:38:32.951Z,-5.90
2018-11-27T03:40:59.688Z,-5.90
2018-11-27T03:43:26.337Z,-5.90
2018-11-27T03:45:52.995Z,-5.90
2018-11-27T03:48:19.718Z,-5.80
2018-11-27T03:50:46.457Z,-5.80
2018-11-27T03:53:13.232Z,-5.80
2018-11-27T03:55:40.662Z,-5.80
2018-11-27T03:58:07.355Z,-5.90
2018-11-27T04:00:34.092Z,-5.80
2018-11-27T04:03:00.802Z,-5.70
2018-11-27T04:05:28.296Z,-5.70
2018-11-27T04:07:55.049Z,-5.80
2018-11-27T04:10:21.727Z,-5.70
2018-11-27T04:12:48.568Z,-5.70
2018-11-27T04:15:15.353Z,-5.80
2018-11-27T04:17:42.290Z,-5.80
2018-11-27T04:20:09.148Z,-5.80
2018-11-27T04:22:35.852Z,-5.80
2018-11-27T04:25:03.440Z,-5.90
2018-11-27T04:27:30.321Z,-5.90
2018-11-27T04:29:58.015Z,-5.90
2018-11-27T04:32:25.513Z,-5.90
2018-11-27T04:34:53.165Z,-5.90
2018-11-27T04:37:20.193Z,-5.90
2018-11-27T04:39:46.900Z,-5.90
2018-11-27T04:42:13.646Z,-6.00
2018-11-27T04:44:40.378Z,-6.00
2018-11-27T04:47:07.882Z,-5.90
2018-11-27T04:49:34.640Z,-6.00
2018-11-27T04:52:01.298Z,-5.90
2018-11-27T04:54:28.018Z,-6.00
2018-11-27T04:56:54.718Z,-6.00
2018-11-27T04:59:21.396Z,-6.00
2018-11-27T05:01:48.209Z,-6.10
2018-11-27T05:04:15.662Z,-6.10
2018-11-27T05:06:43.172Z,-6.10
2018-11-27T05:09:09.958Z,-6.20
2018-11-27T05:11:37.392Z,-6.20
2018-11-27T05:14:04.172Z,-6.30
2018-11-27T05:16:31.601Z,-6.30
2018-11-27T05:18:58.268Z,-6.30
2018-11-27T05:21:25.711Z,-6.30
2018-11-27T05:23:52.490Z,-6.40
2018-11-27T05:26:19.163Z,-6.40
2018-11-27T05:28:45.849Z,-6.40
2018-11-27T05:31:14.421Z,-6.40
2018-11-27T05:33:41.814Z,-6.30
2018-11-27T05:36:09.452Z,-6.40
2018-11-27T05:38:36.897Z,-6.30
2018-11-27T05:41:04.494Z,-6.30
2018-11-27T05:43:31.366Z,-6.30
2018-11-27T05:45:58.113Z,-6.30
2018-11-27T05:48:25.534Z,-6.30
2018-11-27T05:50:52.255Z,-6.30
2018-11-27T05:53:18.960Z,-6.30
2018-11-27T05:55:45.620Z,-6.30
2018-11-27T05:58:13.029Z,-6.30
2018-11-27T06:00:39.720Z,-6.40
2018-11-27T06:03:06.577Z,-6.30
2018-11-27T06:05:33.292Z,-6.40
2018-11-27T06:08:00.731Z,-6.50
2018-11-27T06:10:28.167Z,-6.50
2018-11-27T06:12:54.830Z,-6.50
2018-11-27T06:18:03.611Z,-6.60
2018-11-27T06:20:31.614Z,-6.60
2018-11-27T06:22:58.292Z,-6.60
2018-11-27T06:25:25.722Z,-6.70
2018-11-27T06:27:52.609Z,-6.70
2018-11-27T06:30:19.332Z,-6.70
2018-11-27T06:32:46.788Z,-6.60
2018-11-27T06:35:14.322Z,-6.60
2018-11-27T06:37:41.025Z,-6.70
2018-11-27T06:40:07.738Z,-6.60
2018-11-27T06:42:34.795Z,-6.50
2018-11-27T06:45:01.486Z,-6.60
2018-11-27T06:47:28.195Z,-6.60
2018-11-27T06:49:54.942Z,-6.60
2018-11-27T06:52:22.405Z,-6.60
2018-11-27T06:54:49.055Z,-6.60
2018-11-27T06:57:15.751Z,-6.50
2018-11-27T06:59:42.428Z,-6.50
2018-11-27T07:02:09.146Z,-6.50
2018-11-27T07:04:35.868Z,-6.60
2018-11-27T07:07:02.628Z,-6.50
2018-11-27T07:09:29.373Z,-6.50
2018-11-27T07:11:56.145Z,-6.50
2018-11-27T07:14:23.787Z,-6.40
2018-11-27T07:16:50.486Z,-6.50
2018-11-27T07:19:17.269Z,-6.40
2018-11-27T07:21:43.993Z,-6.40
2018-11-27T07:24:10.769Z,-6.50
2018-11-27T07:26:37.467Z,-6.40
2018-11-27T07:29:04.188Z,-6.40
2018-11-27T07:31:30.919Z,-6.30
2018-11-27T07:33:57.607Z,-6.30
2018-11-27T07:36:24.292Z,-6.20
2018-11-27T07:38:51.938Z,-6.20
2018-11-27T07:41:19.370Z,-6.10
2018-11-27T07:43:46.052Z,-6.20
2018-11-27T07:46:13.497Z,-6.10
2018-11-27T07:48:40.951Z,-6.10
2018-11-27T07:51:08.419Z,-6.10
2018-11-27T07:53:35.146Z,-6.10
2018-11-27T07:56:02.567Z,-6.00
2018-11-27T07:58:29.308Z,-6.00
2018-11-27T08:00:55.966Z,-5.90
2018-11-27T08:03:22.643Z,-5.90
2018-11-27T08:05:50.130Z,-5.80
2018-11-27T08:08:16.790Z,-5.80
2018-11-27T08:10:43.443Z,-5.70
2018-11-27T08:13:10.156Z,-5.70
2018-11-27T08:15:36.839Z,-5.70
2018-11-27T08:18:04.347Z,-5.70
2018-11-27T08:20:31.020Z,-5.70
2018-11-27T08:22:57.720Z,-5.70
2018-11-27T08:25:24.462Z,-5.70
2018-11-27T08:27:51.139Z,-5.70
2018-11-27T08:30:17.856Z,-5.70
2018-11-27T08:32:44.602Z,-5.70
2018-11-27T08:35:11.320Z,-5.60
2018-11-27T08:37:37.989Z,-5.50
2018-11-27T08:40:04.741Z,-5.40
2018-11-27T08:42:31.426Z,-5.40
2018-11-27T08:44:58.119Z,-5.40
2018-11-27T08:47:24.823Z,-5.40
2018-11-27T08:49:51.481Z,-5.40
2018-11-27T08:52:18.194Z,-5.40
2018-11-27T08:54:45.647Z,-5.20
2018-11-27T08:57:12.333Z,-5.30
2018-11-27T08:59:39.050Z,-5.20
2018-11-27T09:02:05.949Z,-5.20
2018-11-27T09:04:32.535Z,-5.20
2018-11-27T09:06:59.283Z,-5.20
2018-11-27T09:09:26.024Z,-5.10
2018-11-27T09:11:52.739Z,-5.10
2018-11-27T09:14:19.433Z,-5.00
2018-11-27T09:16:46.904Z,-5.10
2018-11-27T09:19:14.350Z,-5.10
2018-11-27T09:21:41.790Z,-5.00
2018-11-27T09:24:09.292Z,-5.00
2018-11-27T09:26:35.956Z,-5.00
2018-11-27T09:29:02.659Z,-4.90
2018-11-27T09:31:30.121Z,-4.80
2018-11-27T09:33:56.821Z,-4.80
2018-11-27T09:36:23.471Z,-4.60
2018-11-27T09:38:50.958Z,-4.30
2018-11-27T09:41:17.663Z,-4.30
2018-11-27T09:43:45.103Z,-4.20
2018-11-27T09:46:11.870Z,-4.20
2018-11-27T09:48:39.292Z,-4.00
2018-11-27T09:51:06.732Z,-4.00
2018-11-27T09:53:34.115Z,-4.00
2018-11-27T09:56:00.287Z,-4.00
2018-11-27T09:58:26.971Z,-4.00
2018-11-27T10:00:53.665Z,-4.00
2018-11-27T10:03:20.418Z,-4.00
2018-11-27T10:05:47.087Z,-3.90
2018-11-27T10:08:13.801Z,-3.90
2018-11-27T10:10:40.523Z,-4.00
2018-11-27T10:13:07.216Z,-3.90
2018-11-27T10:15:33.936Z,-3.90
2018-11-27T10:18:00.680Z,-3.80
2018-11-27T10:20:27.408Z,-3.80
2018-11-27T10:22:54.103Z,-3.80
2018-11-27T10:25:21.557Z,-3.80
2018-11-27T10:27:48.989Z,-3.70
2018-11-27T10:30:15.760Z,-3.70
2018-11-27T10:32:43.195Z,-3.70
2018-11-27T10:35:09.935Z,-3.80
2018-11-27T10:37:36.661Z,-3.70
2018-11-27T10:40:03.418Z,-3.70
2018-11-27T10:42:30.370Z,-3.60
2018-11-27T10:44:56.956Z,-3.60
2018-11-27T10:47:23.666Z,-3.50
2018-11-27T10:49:51.076Z,-3.40
2018-11-27T10:52:17.809Z,-3.50
2018-11-27T10:54:44.471Z,-3.50
2018-11-27T10:57:11.925Z,-3.40
2018-11-27T10:59:38.621Z,-3.40
2018-11-27T11:02:05.370Z,-3.40
2018-11-27T11:04:32.063Z,-3.40
2018-11-27T11:06:59.562Z,-3.20
2018-11-27T11:09:26.216Z,-3.30
2018-11-27T11:11:52.917Z,-3.30
2018-11-27T11:14:20.380Z,-3.30
2018-11-27T11:16:47.100Z,-3.30
2018-11-27T11:19:18.371Z,-3.20
2018-11-27T11:21:40.605Z,-3.20
2018-11-27T11:24:07.273Z,-3.20
2018-11-27T11:26:33.977Z,-3.20
2018-11-27T11:29:00.653Z,-3.20
2018-11-27T11:31:27.391Z,-3.20
2018-11-27T11:33:54.059Z,-3.10
2018-11-27T11:36:20.725Z,-3.10
2018-11-27T11:38:48.193Z,-3.10
2018-11-27T11:41:14.889Z,-3.10
2018-11-27T11:43:41.586Z,-3.10
2018-11-27T11:46:08.349Z,-3.00
2018-11-27T11:48:35.022Z,-3.00
2018-11-27T11:51:02.493Z,-2.90
2018-11-27T11:53:29.979Z,-2.90
2018-11-27T11:55:56.686Z,-2.90
2018-11-27T11:58:23.375Z,-2.90
2018-11-27T12:00:50.149Z,-2.90
2018-11-27T12:03:16.872Z,-2.80
2018-11-27T12:05:43.522Z,-2.90
2018-11-27T12:08:10.217Z,-2.90
2018-11-27T12:10:36.960Z,-2.90
2018-11-27T12:13:03.671Z,-2.90
2018-11-27T12:15:30.355Z,-2.90
2018-11-27T12:17:57.120Z,-2.90
2018-11-27T12:20:23.782Z,-3.00
2018-11-27T12:22:51.269Z,-3.00
2018-11-27T12:25:17.984Z,-3.00
2018-11-27T12:27:45.453Z,-3.00
2018-11-27T12:30:13.167Z,-3.10
2018-11-27T12:32:39.862Z,-3.10
2018-11-27T12:35:06.659Z,-3.10
2018-11-27T12:37:33.353Z,-3.10
2018-11-27T12:40:00.018Z,-3.10
2018-11-27T12:42:26.757Z,-3.10
2018-11-27T12:44:53.448Z,-3.20
2018-11-27T12:47:20.908Z,-3.20
2018-11-27T12:49:48.381Z,-3.20
2018-11-27T12:52:15.080Z,-3.20
2018-11-27T12:54:41.775Z,-3.30
2018-11-27T12:57:08.513Z,-3.30
2018-11-27T12:59:35.219Z,-3.20
2018-11-27T13:02:02.642Z,-3.40
2018-11-27T13:04:29.360Z,-3.50
2018-11-27T13:06:56.033Z,-3.50
2018-11-27T13:09:22.696Z,-3.50
2018-11-27T13:11:50.195Z,-3.60
2018-11-27T13:14:16.905Z,-3.60
2018-11-27T13:16:43.614Z,-3.60
2018-11-27T13:19:10.353Z,-3.70
2018-11-27T13:21:37.039Z,-3.70
2018-11-27T13:24:03.762Z,-3.70
2018-11-27T13:26:30.560Z,-3.80
2018-11-27T13:28:57.270Z,-3.70
2018-11-27T13:31:23.959Z,-3.80
2018-11-27T13:33:50.786Z,-3.80
2018-11-27T13:36:17.531Z,-3.90
2018-11-27T13:38:44.226Z,-4.00
2018-11-27T13:41:10.931Z,-4.00
2018-11-27T13:43:38.396Z,-4.20
2018-11-27T13:46:05.155Z,-4.30
2018-11-27T13:48:31.839Z,-4.30
2018-11-27T13:50:58.494Z,-4.40
2018-11-27T13:53:25.992Z,-4.40
2018-11-27T13:55:52.658Z,-4.50
2018-11-27T13:58:19.356Z,-4.60
2018-11-27T14:00:46.174Z,-4.60
2018-11-27T14:03:12.889Z,-4.60
2018-11-27T14:05:39.622Z,-4.70
2018-11-27T14:08:06.338Z,-4.80
2018-11-27T14:10:33.059Z,-4.90
2018-11-27T14:12:59.747Z,-4.90
2018-11-27T14:15:26.498Z,-4.90
2018-11-27T14:17:53.258Z,-5.00
2018-11-27T14:20:20.737Z,-5.00
2018-11-27T14:22:47.514Z,-5.10
2018-11-27T14:25:14.293Z,-5.10
2018-11-27T14:27:41.000Z,-5.20
2018-11-27T14:33:07.610Z,-5.20
2018-11-27T14:35:34.438Z,-5.20
2018-11-27T14:38:01.187Z,-5.30
2018-11-27T14:40:27.928Z,-5.40
2018-11-27T14:42:54.670Z,-5.40
2018-11-27T14:48:31.107Z,-5.40
2018-11-27T14:50:58.034Z,-5.40
2018-11-27T14:53:24.741Z,-5.50
2018-11-27T14:55:52.246Z,-5.50
2018-11-27T14:58:19.074Z,-5.60
2018-11-27T15:00:45.815Z,-5.60
2018-11-27T15:03:12.655Z,-5.60
2018-11-27T15:05:39.500Z,-5.70
2018-11-27T15:08:06.242Z,-5.70
2018-11-27T15:10:32.983Z,-5.70
2018-11-27T15:12:59.719Z,-5.80
2018-11-27T15:15:26.568Z,-5.80
2018-11-27T15:17:53.310Z,-5.90
2018-11-27T15:20:20.149Z,-5.90
2018-11-27T15:22:46.888Z,-5.90
2018-11-27T15:25:13.731Z,-5.90
2018-11-27T15:27:40.479Z,-6.00
2018-11-27T15:30:07.316Z,-6.00
2018-11-27T15:32:34.053Z,-6.10
2018-11-27T15:35:00.795Z,-6.10
2018-11-27T15:37:27.846Z,-6.00
2018-11-27T15:39:54.533Z,-6.00
2018-11-27T15:42:21.326Z,-5.90
2018-11-27T15:44:48.066Z,-5.90
2018-11-27T15:47:14.808Z,-5.90
2018-11-27T15:49:41.955Z,-5.90
2018-11-27T15:52:08.798Z,-5.80
2018-11-27T15:54:35.534Z,-5.80
2018-11-27T15:57:02.379Z,-5.80
2018-11-27T15:59:29.323Z,-5.80
2018-11-27T16:01:56.070Z,-5.80
2018-11-27T16:04:22.808Z,-5.80
2018-11-27T16:06:49.547Z,-5.80
2018-11-27T16:09:17.415Z,-5.90
2018-11-27T16:11:44.317Z,-5.80
2018-11-27T16:14:11.101Z,-5.80
2018-11-27T16:16:37.843Z,-5.90
2018-11-27T16:19:04.579Z,-5.90
2018-11-27T16:21:31.321Z,-5.90
2018-11-27T16:23:58.063Z,-5.90
2018-11-27T16:26:24.802Z,-5.90
2018-11-27T16:28:51.642Z,-5.90
2018-11-27T16:31:18.599Z,-5.90
2018-11-27T16:33:45.637Z,-6.00
2018-11-27T16:36:12.582Z,-6.00
2018-11-27T16:38:40.299Z,-6.00
2018-11-27T16:41:07.089Z,-6.10
2018-11-27T16:43:34.032Z,-6.10
2018-11-27T16:46:00.980Z,-6.10
2018-11-27T16:48:27.723Z,-6.20
2018-11-27T16:50:54.565Z,-6.30
2018-11-27T16:53:21.299Z,-6.30
2018-11-27T16:55:48.145Z,-6.30
2018-11-27T16:58:14.891Z,-6.30
2018-11-27T17:00:41.831Z,-6.30
2018-11-27T17:03:08.673Z,-6.30
2018-11-27T17:05:36.131Z,-6.40
2018-11-27T17:08:04.192Z,-6.40
2018-11-27T17:10:31.353Z,-6.40
2018-11-27T17:12:58.807Z,-6.40
2018-11-27T17:15:26.162Z,-6.40
2018-11-27T17:17:53.321Z,-6.40
2018-11-27T17:20:21.179Z,-6.40
2018-11-27T17:22:48.946Z,-6.40
2018-11-27T17:25:15.994Z,-6.40
2018-11-27T17:27:43.154Z,-6.40
2018-11-27T17:30:09.985Z,-6.50
2018-11-27T17:32:36.829Z,-6.50
2018-11-27T17:35:03.670Z,-6.60
2018-11-27T17:37:30.410Z,-6.60
2018-11-27T17:39:57.092Z,-6.60
2018-11-27T17:45:24.433Z,-6.70
2018-11-27T17:47:52.044Z,-6.70
2018-11-27T17:50:18.996Z,-6.80
2018-11-27T17:52:45.722Z,-6.80
2018-11-27T17:55:12.529Z,-6.80
2018-11-27T17:57:39.231Z,-6.80
2018-11-27T18:00:05.951Z,-6.80
2018-11-27T18:02:33.309Z,-6.90
2018-11-27T18:05:00.253Z,-6.90
2018-11-27T18:07:27.711Z,-6.90
2018-11-27T18:09:54.466Z,-6.90
2018-11-27T18:12:21.171Z,-6.90
2018-11-27T18:14:47.876Z,-6.90
2018-11-27T18:17:14.607Z,-7.00
2018-11-27T18:19:42.048Z,-7.00
2018-11-27T18:22:08.865Z,-7.00
2018-11-27T18:24:35.718Z,-7.00
2018-11-27T18:27:02.509Z,-7.00
2018-11-27T18:29:29.217Z,-7.00
2018-11-27T18:31:56.708Z,-7.10
2018-11-27T18:34:23.511Z,-7.10
2018-11-27T18:36:50.170Z,-7.10
2018-11-27T18:39:17.615Z,-7.20
2018-11-27T18:41:45.296Z,-7.30
2018-11-27T18:44:12.267Z,-7.30
2018-11-27T18:46:39.026Z,-7.30
2018-11-27T18:49:05.975Z,-7.40
2018-11-27T18:51:32.720Z,-7.40
2018-11-27T18:54:00.223Z,-7.40
2018-11-27T18:56:26.941Z,-7.50
2018-11-27T18:58:53.694Z,-7.40
2018-11-27T19:01:21.317Z,-7.50
2018-11-27T19:03:48.845Z,-7.50
2018-11-27T19:06:15.549Z,-7.60
2018-11-27T19:08:42.417Z,-7.60
2018-11-27T19:11:09.122Z,-7.70
2018-11-27T19:13:35.830Z,-7.60
2018-11-27T19:16:03.268Z,-7.60
2018-11-27T19:18:30.684Z,-7.70
2018-11-27T19:20:58.405Z,-7.60
2018-11-27T19:23:25.321Z,-7.60
2018-11-27T19:25:52.023Z,-7.60
2018-11-27T19:28:18.733Z,-7.60
2018-11-27T19:30:45.505Z,-7.70
2018-11-27T19:33:13.015Z,-7.70
2018-11-27T19:35:39.743Z,-7.70
2018-11-27T19:38:06.456Z,-7.80
2018-11-27T19:40:33.940Z,-7.80
2018-11-27T19:43:01.124Z,-7.80
2018-11-27T19:45:28.742Z,-7.90
2018-11-27T19:47:55.499Z,-7.90
2018-11-27T19:50:22.529Z,-7.90
2018-11-27T19:52:49.372Z,-7.80
2018-11-27T19:55:16.138Z,-7.90
2018-11-27T19:57:42.963Z,-7.90
2018-11-27T20:00:09.884Z,-7.90
2018-11-27T20:02:36.608Z,-7.90
2018-11-27T20:05:04.155Z,-8.00
2018-11-27T20:07:30.889Z,-8.10
2018-11-27T20:09:58.369Z,-8.10
2018-11-27T20:12:25.080Z,-8.10
2018-11-27T20:14:51.884Z,-8.10
2018-11-27T20:17:19.805Z,-8.20
2018-11-27T20:19:46.807Z,-8.30
2018-11-27T20:22:13.642Z,-8.20
2018-11-27T20:24:40.320Z,-8.20
2018-11-27T20:27:07.364Z,-8.30
2018-11-27T20:29:34.088Z,-8.40
2018-11-27T20:32:00.932Z,-8.30
2018-11-27T20:34:28.323Z,-8.40
2018-11-27T20:36:55.037Z,-8.30
2018-11-27T20:39:21.992Z,-8.30
2018-11-27T20:41:48.698Z,-8.30
2018-11-27T20:44:15.464Z,-8.30
2018-11-27T20:46:42.295Z,-8.30
2018-11-27T20:49:09.160Z,-8.40
2018-11-27T20:51:35.881Z,-8.40
2018-11-27T20:54:02.568Z,-8.40
2018-11-27T20:56:29.266Z,-8.40
2018-11-27T20:58:56.092Z,-8.40
2018-11-27T21:01:22.783Z,-8.40
2018-11-27T21:03:49.564Z,-8.50
2018-11-27T21:06:31.221Z,-8.50
2018-11-27T21:08:57.926Z,-8.50
2018-11-27T21:11:25.517Z,-8.50
2018-11-27T21:16:45.576Z,-8.60
2018-11-27T21:19:12.314Z,-8.70
2018-11-27T21:21:39.014Z,-8.80
2018-11-27T21:24:06.432Z,-8.80
2018-11-27T21:26:33.152Z,-8.90
2018-11-27T21:28:59.813Z,-9.00
2018-11-27T21:31:26.605Z,-9.10
2018-11-27T21:33:53.383Z,-9.10
2018-11-27T21:36:20.135Z,-9.20
2018-11-27T21:38:46.838Z,-9.10
2018-11-27T21:41:13.579Z,-9.10
2018-11-27T21:43:40.331Z,-9.10
2018-11-27T21:46:07.095Z,-9.20
2018-11-27T21:48:33.817Z,-9.20
2018-11-27T21:51:00.501Z,-9.20
2018-11-27T21:53:27.989Z,-9.10
2018-11-27T21:55:55.417Z,-9.00
2018-11-27T21:58:22.088Z,-9.00
2018-11-27T22:00:48.829Z,-9.00
2018-11-27T22:03:15.545Z,-9.00
2018-11-27T22:05:42.336Z,-9.00
2018-11-27T22:08:09.174Z,-9.10
2018-11-27T22:10:35.862Z,-9.10
2018-11-27T22:13:02.681Z,-9.10
2018-11-27T22:15:29.452Z,-9.10
2018-11-27T22:17:56.848Z,-8.90
2018-11-27T22:20:23.559Z,-9.00
2018-11-27T22:22:51.025Z,-9.00
2018-11-27T22:25:17.800Z,-9.00
2018-11-27T22:27:45.265Z,-9.10
2018-11-27T22:30:12.068Z,-9.00
2018-11-27T22:32:38.806Z,-9.10
2018-11-27T22:35:05.487Z,-9.20
2018-11-27T22:37:32.244Z,-9.20
2018-11-27T22:39:58.940Z,-9.10
2018-11-27T22:42:25.811Z,-9.10
2018-11-27T22:44:52.542Z,-9.00
2018-11-27T22:47:19.739Z,-9.10
2018-11-27T22:49:46.466Z,-9.20
2018-11-27T22:52:13.192Z,-9.10
2018-11-27T22:54:39.912Z,-9.20
2018-11-27T22:57:06.612Z,-9.30
2018-11-27T22:59:34.078Z,-9.40
2018-11-27T23:02:00.745Z,-9.40
2018-11-27T23:04:27.454Z,-9.40
2018-11-27T23:06:54.209Z,-9.40
2018-11-27T23:09:20.909Z,-9.40
2018-11-27T23:11:48.330Z,-9.50
2018-11-27T23:14:15.901Z,-9.50
2018-11-27T23:16:42.672Z,-9.50
2018-11-27T23:19:10.083Z,-9.50
2018-11-27T23:21:36.840Z,-9.50
2018-11-27T23:24:03.591Z,-9.50
2018-11-27T23:26:30.268Z,-9.40
2018-11-27T23:28:56.959Z,-9.50
2018-11-27T23:31:23.654Z,-9.50
2018-11-27T23:33:50.389Z,-9.50
2018-11-27T23:36:17.260Z,-9.60
2018-11-27T23:38:43.935Z,-9.60
2018-11-27T23:41:10.756Z,-9.60
2018-11-27T23:43:37.494Z,-9.60
2018-11-27T23:46:04.228Z,-9.70
2018-11-27T23:48:30.945Z,-9.70
2018-11-27T23:50:57.689Z,-9.70
2018-11-27T23:53:24.452Z,-9.70
2018-11-27T23:55:51.200Z,-9.70
2018-11-27T23:58:18.202Z,-9.70
